Time;durP1;ratioP1;P1;durP2;ratioP2;P2;SDS_P1;SDS_P2;PMS_P1;PMS_P2;Temp;Humidity;BMP_temperature;BMP_pressure;BME280_temperature;BME280_humidity;BME280_pressure;Samples;Min_cycle;Max_cycle;Signal;HPM_P1;HPM_P2
2023/01/20 00:01:13;;;;;;;5.17;3.45;;;-0.10;99.90;;;;;;1889406;75;21187;-89
2023/01/20 00:04:05;;;;;;;5.20;3.70;;;-0.20;99.90;;;;;;1887044;75;21176;-89
2023/01/20 00:06:57;;;;;;;5.25;3.55;;;-0.20;99.90;;;;;;1884708;75;21098;-88
2023/01/20 00:12:36;;;;;;;6.00;3.98;;;-0.20;99.90;;;;;;1944657;72;22268;-89
2023/01/20 00:18:09;;;;;;;6.30;3.80;;;-0.30;99.90;;;;;;1941006;72;22245;-89
2023/01/20 00:23:56;;;;;;;4.85;2.90;;;-0.40;99.90;;;;;;1970663;72;22229;-89
2023/01/20 00:26:47;;;;;;;4.28;3.00;;;-0.40;99.90;;;;;;1924952;73;21136;-89
2023/01/20 00:29:43;;;;;;;4.65;2.58;;;-0.40;99.90;;;;;;1927739;73;21122;-89
2023/01/20 00:32:43;;;;;;;3.22;2.60;;;-0.40;99.90;;;;;;1931922;73;21234;-91
2023/01/20 00:35:32;;;;;;;4.05;2.25;;;-0.40;99.90;;;;;;1923545;73;21098;-88
2023/01/20 00:38:24;;;;;;;4.47;2.95;;;-0.40;99.90;;;;;;1923855;73;21152;-91
2023/01/20 00:41:18;;;;;;;4.03;2.77;;;-0.50;99.90;;;;;;1919354;73;21157;-90
2023/01/20 00:44:10;;;;;;;4.78;3.17;;;-0.50;99.90;;;;;;1924106;73;21086;-89
2023/01/20 00:49:40;;;;;;;5.67;2.70;;;-0.40;99.90;;;;;;1936791;72;22198;-90
2023/01/20 00:52:32;;;;;;;5.30;2.83;;;-0.40;99.90;;;;;;1872930;76;21213;-89
2023/01/20 00:55:25;;;;;;;4.42;3.08;;;-0.40;99.90;;;;;;1899731;75;21086;-89
2023/01/20 00:58:17;;;;;;;5.78;3.47;;;-0.40;99.90;;;;;;1898595;75;21152;-88
2023/01/20 01:03:49;;;;;;;4.65;3.05;;;-0.40;99.90;;;;;;1949104;72;22134;-89
2023/01/20 01:06:41;;;;;;;5.70;3.45;;;-0.40;99.90;;;;;;1912803;74;21096;-90
2023/01/20 01:12:15;;;;;;;5.90;3.70;;;-0.50;99.90;;;;;;1937085;72;22201;-89
2023/01/20 01:15:09;;;;;;;5.30;3.77;;;-0.50;99.90;;;;;;1937195;73;21102;-90
2023/01/20 01:20:43;;;;;;;6.70;3.40;;;-0.60;99.90;;;;;;1944407;72;22604;-89
2023/01/20 01:23:34;;;;;;;5.50;3.50;;;-0.60;99.90;;;;;;1939761;73;21054;-90
2023/01/20 01:26:25;;;;;;;5.30;3.47;;;-0.60;99.90;;;;;;1933214;73;21183;-89
2023/01/20 01:29:17;;;;;;;4.50;3.35;;;-0.50;99.90;;;;;;1917237;74;21090;-89
2023/01/20 01:32:09;;;;;;;5.75;4.10;;;-0.60;99.90;;;;;;1926219;73;21087;-89
2023/01/20 01:37:39;;;;;;;6.03;3.85;;;-0.60;99.90;;;;;;1941244;72;22271;-89
2023/01/20 01:40:30;;;;;;;5.33;3.58;;;-0.60;99.90;;;;;;1889016;75;21196;-90
2023/01/20 01:46:08;;;;;;;6.28;3.80;;;-0.60;99.90;;;;;;1956767;72;22245;-89
2023/01/20 01:49:02;;;;;;;4.87;3.22;;;-0.70;99.90;;;;;;1920186;73;21082;-89
2023/01/20 01:51:57;;;;;;;5.00;3.58;;;-0.70;99.90;;;;;;1922451;73;21267;-91
2023/01/20 01:57:31;;;;;;;5.08;3.37;;;-0.60;99.90;;;;;;1924953;73;22295;-89
2023/01/20 02:00:23;;;;;;;6.33;3.87;;;-0.70;99.90;;;;;;1892166;75;21090;-89
2023/01/20 02:03:15;;;;;;;5.45;3.20;;;-0.70;99.90;;;;;;1905721;75;21175;-90
2023/01/20 02:06:10;;;;;;;5.40;3.02;;;-0.70;99.90;;;;;;1901040;74;21086;-89
2023/01/20 02:14:36;;;;;;;7.00;3.50;;;-0.60;99.90;;;;;;1933175;72;22158;-89
2023/01/20 02:17:32;;;;;;;5.75;3.50;;;-0.60;99.90;;;;;;1908748;74;21418;-89
2023/01/20 02:21:02;;;;;;;5.58;3.62;;;-0.70;99.90;;;;;;1886836;75;21056;-88
2023/01/20 02:24:05;;;;;;;5.05;3.35;;;-0.60;99.90;;;;;;1874552;75;21063;-89
2023/01/20 02:30:23;;;;;;;5.90;4.22;;;-0.70;99.90;;;;;;1910343;72;28115;-89
2023/01/20 02:33:18;;;;;;;5.70;3.65;;;-0.50;99.90;;;;;;1862131;76;21204;-89
2023/01/20 02:36:14;;;;;;;4.22;3.20;;;-0.50;99.90;;;;;;1884690;75;21215;-91
2023/01/20 02:39:08;;;;;;;6.08;3.58;;;-0.50;99.90;;;;;;1879562;75;21202;-90
2023/01/20 02:44:44;;;;;;;6.75;3.47;;;-0.60;99.90;;;;;;1943091;72;22428;-90
2023/01/20 02:53:02;;;;;;;5.60;3.45;;;-0.60;99.90;;;;;;1957447;72;22262;-89
2023/01/20 02:55:55;;;;;;;4.97;3.27;;;-0.70;99.90;;;;;;1904053;75;21094;-88
2023/01/20 03:01:38;;;;;;;5.33;3.22;;;-0.70;99.90;;;;;;1949505;72;22158;-89
2023/01/20 03:07:17;;;;;;;4.85;3.25;;;-0.70;99.90;;;;;;1944398;72;22224;-90
2023/01/20 03:12:52;;;;;;;4.62;3.20;;;-0.80;99.90;;;;;;1948060;72;22142;-88
2023/01/20 03:18:23;;;;;;;5.37;2.90;;;-0.90;99.90;;;;;;1913246;72;22185;-89
2023/01/20 03:21:15;;;;;;;5.60;3.22;;;-0.90;99.90;;;;;;1897831;75;21159;-89
2023/01/20 03:24:08;;;;;;;4.37;2.80;;;-0.90;99.90;;;;;;1903686;75;21109;-88
2023/01/20 03:29:45;;;;;;;3.75;2.58;;;-0.90;99.90;;;;;;1945481;72;22285;-88
2023/01/20 03:32:37;;;;;;;3.77;2.72;;;-0.90;99.90;;;;;;1897630;75;21107;-88
2023/01/20 03:35:29;;;;;;;5.12;3.00;;;-1.00;99.90;;;;;;1884761;75;21062;-91
2023/01/20 03:41:04;;;;;;;3.42;2.55;;;-0.90;99.90;;;;;;1934252;72;22175;-89
2023/01/20 03:44:00;;;;;;;4.37;2.37;;;-1.00;99.90;;;;;;1897443;74;21114;-89
2023/01/20 03:46:55;;;;;;;6.37;2.77;;;-1.00;99.90;;;;;;1901156;74;21118;-90
2023/01/20 03:49:52;;;;;;;3.40;2.25;;;-1.00;99.90;;;;;;1917708;74;21105;-90
2023/01/20 03:52:47;;;;;;;3.70;2.50;;;-1.00;99.90;;;;;;1903500;74;21054;-88
2023/01/20 03:58:23;;;;;;;3.72;2.60;;;-1.10;99.90;;;;;;1937611;72;22226;-89
2023/01/20 04:03:58;;;;;;;3.02;2.20;;;-1.00;99.90;;;;;;1945839;72;22185;-89
2023/01/20 04:06:53;;;;;;;4.37;2.52;;;-1.10;99.90;;;;;;1912252;73;21083;-89
2023/01/20 04:09:47;;;;;;;3.98;2.65;;;-1.10;99.90;;;;;;1904646;74;21067;-91
2023/01/20 04:15:25;;;;;;;3.47;2.15;;;-1.20;99.90;;;;;;1940430;72;22201;-89
2023/01/20 04:18:21;;;;;;;3.58;2.40;;;-1.20;99.90;;;;;;1897647;75;21106;-88
2023/01/20 04:21:16;;;;;;;3.50;2.40;;;-1.20;99.90;;;;;;1888127;75;21054;-89
2023/01/20 04:24:11;;;;;;;3.83;2.47;;;-1.20;99.90;;;;;;1876304;75;21977;-89
2023/01/20 04:29:52;;;;;;;3.95;2.70;;;-1.30;99.90;;;;;;1972956;72;22181;-88
2023/01/20 04:35:24;;;;;;;4.87;3.02;;;-1.30;99.90;;;;;;1948764;72;22233;-89
2023/01/20 04:38:16;;;;;;;3.90;2.20;;;-1.30;99.90;;;;;;1917402;73;21250;-91
2023/01/20 04:41:09;;;;;;;3.22;1.85;;;-1.30;99.90;;;;;;1905240;74;21104;-88
2023/01/20 04:44:02;;;;;;;3.40;1.95;;;-1.20;99.90;;;;;;1905640;74;21093;-88
2023/01/20 04:49:49;;;;;;;3.55;1.80;;;-1.20;99.90;;;;;;1951455;72;22221;-89
2023/01/20 04:52:41;;;;;;;5.55;1.98;;;-1.30;99.90;;;;;;1932184;73;21118;-89
2023/01/20 04:55:34;;;;;;;2.45;1.60;;;-1.40;99.90;;;;;;1917734;73;21643;-89
2023/01/20 04:58:25;;;;;;;3.72;2.00;;;-1.50;99.90;;;;;;1917369;73;21093;-89
2023/01/20 05:01:17;;;;;;;2.80;1.95;;;-1.40;99.90;;;;;;1932640;73;21094;-88
2023/01/20 05:04:09;;;;;;;3.35;1.87;;;-1.50;99.90;;;;;;1927561;73;21150;-91
2023/01/20 05:07:03;;;;;;;3.50;2.10;;;-1.60;99.90;;;;;;1895437;75;21057;-90
2023/01/20 05:09:55;;;;;;;3.40;1.77;;;-1.60;99.90;;;;;;1917938;73;21104;-90
2023/01/20 05:12:46;;;;;;;5.97;2.15;;;-1.60;99.90;;;;;;1917341;75;21387;-88
2023/01/20 05:15:39;;;;;;;4.25;2.00;;;-1.70;99.90;;;;;;1917313;73;21138;-90
2023/01/20 05:18:31;;;;;;;3.33;1.80;;;-1.70;99.90;;;;;;1921555;73;21766;-88
2023/01/20 05:21:22;;;;;;;2.35;1.70;;;-1.60;99.90;;;;;;1924875;73;21105;-89
2023/01/20 05:24:14;;;;;;;3.58;2.00;;;-1.60;99.90;;;;;;1925631;73;21121;-90
2023/01/20 05:29:49;;;;;;;4.33;2.00;;;-1.70;99.90;;;;;;1959682;72;22228;-89
2023/01/20 05:32:40;;;;;;;4.17;2.10;;;-1.70;99.90;;;;;;1917442;73;21172;-89
2023/01/20 05:35:32;;;;;;;3.22;2.00;;;-1.60;99.90;;;;;;1917064;75;21089;-91
2023/01/20 05:38:23;;;;;;;3.15;1.60;;;-1.60;99.90;;;;;;1921266;73;21067;-89
2023/01/20 05:41:15;;;;;;;4.20;1.98;;;-1.70;99.90;;;;;;1917275;74;21184;-90
2023/01/20 05:44:07;;;;;;;3.05;1.75;;;-1.70;99.90;;;;;;1935698;73;21097;-89
2023/01/20 05:46:59;;;;;;;4.37;1.50;;;-1.70;99.90;;;;;;1920105;73;21059;-89
2023/01/20 05:52:32;;;;;;;2.67;1.85;;;-1.80;99.90;;;;;;1938953;72;22228;-88
2023/01/20 05:55:24;;;;;;;2.62;1.80;;;-1.80;99.90;;;;;;1900163;75;21150;-90
2023/01/20 05:58:15;;;;;;;4.35;2.08;;;-1.90;99.90;;;;;;1900647;75;21477;-88
2023/01/20 06:01:09;;;;;;;2.90;1.77;;;-1.90;99.90;;;;;;1892707;75;21153;-89
2023/01/20 06:04:01;;;;;;;2.80;1.70;;;-1.80;99.90;;;;;;1895634;75;21197;-89
2023/01/20 06:09:45;;;;;;;3.67;1.70;;;-1.90;99.90;;;;;;1968587;72;22296;-88
2023/01/20 06:15:22;;;;;;;3.17;2.00;;;-1.80;99.90;;;;;;1950587;72;22712;-89
2023/01/20 06:18:14;;;;;;;5.83;1.82;;;-1.70;99.90;;;;;;1916336;75;21113;-90
2023/01/20 06:21:07;;;;;;;2.92;1.70;;;-1.80;99.90;;;;;;1909869;75;21097;-90
2023/01/20 06:23:59;;;;;;;4.17;1.75;;;-1.80;99.90;;;;;;1896668;75;21180;-89
2023/01/20 06:26:52;;;;;;;4.70;1.95;;;-1.80;99.90;;;;;;1913091;75;21147;-89
2023/01/20 06:29:43;;;;;;;2.33;1.65;;;-1.70;99.90;;;;;;1906521;75;21168;-89
2023/01/20 06:32:37;;;;;;;4.78;2.08;;;-1.80;99.90;;;;;;1890227;75;21156;-90
2023/01/20 06:35:30;;;;;;;3.42;1.90;;;-1.80;99.90;;;;;;1897832;75;21091;-89
2023/01/20 06:38:22;;;;;;;3.55;1.65;;;-1.80;99.90;;;;;;1893129;75;21415;-90
2023/01/20 06:41:14;;;;;;;3.60;2.02;;;-1.80;99.90;;;;;;1888971;73;21101;-90
2023/01/20 06:44:06;;;;;;;3.10;1.90;;;-1.80;99.90;;;;;;1889589;75;21114;-90
2023/01/20 06:46:57;;;;;;;3.20;1.98;;;-1.90;99.90;;;;;;1895579;75;21152;-91
2023/01/20 06:49:52;;;;;;;2.87;2.08;;;-1.90;99.90;;;;;;1912199;75;21116;-89
2023/01/20 06:52:43;;;;;;;2.27;1.70;;;-1.90;99.90;;;;;;1883517;75;21153;-89
2023/01/20 06:55:35;;;;;;;3.08;2.02;;;-1.80;99.90;;;;;;1901070;73;21055;-91
2023/01/20 06:58:29;;;;;;;3.52;2.37;;;-1.90;99.90;;;;;;1888511;75;21134;-89
2023/01/20 07:01:23;;;;;;;3.10;1.87;;;-1.90;99.90;;;;;;1893184;75;21182;-91
2023/01/20 07:04:33;;;;;;;3.80;1.98;;;-1.90;99.90;;;;;;1910036;73;21047;-90
2023/01/20 07:10:32;;;;;;;3.92;1.75;;;-1.90;99.90;;;;;;1944263;72;22213;-92
2023/01/20 07:13:23;;;;;;;2.87;2.02;;;-1.90;99.90;;;;;;1888781;75;21102;-88
2023/01/20 07:16:16;;;;;;;2.67;1.90;;;-1.90;99.90;;;;;;1902564;75;21113;-90
2023/01/20 07:19:07;;;;;;;4.72;2.33;;;-1.90;99.90;;;;;;1886727;75;21148;-88
2023/01/20 07:21:59;;;;;;;2.65;2.12;;;-1.90;99.90;;;;;;1913085;75;21248;-90
2023/01/20 07:24:51;;;;;;;3.70;1.90;;;-2.00;99.90;;;;;;1891094;75;21113;-89
2023/01/20 07:27:42;;;;;;;3.08;1.92;;;-1.90;99.90;;;;;;1912440;75;21068;-89
2023/01/20 07:30:34;;;;;;;3.65;2.00;;;-1.90;99.90;;;;;;1917707;75;21113;-91
2023/01/20 07:33:26;;;;;;;3.83;2.20;;;-1.90;99.90;;;;;;1920336;73;21166;-90
2023/01/20 07:39:28;;;;;;;4.20;2.15;;;-1.90;99.90;;;;;;1930361;72;22215;-89
2023/01/20 07:42:50;;;;;;;3.00;2.08;;;-1.90;99.90;;;;;;1899409;75;21098;-89
2023/01/20 07:45:48;;;;;;;4.17;2.70;;;-1.90;99.90;;;;;;1882288;75;21596;-89
2023/01/20 07:48:41;;;;;;;6.62;3.17;;;-1.90;99.90;;;;;;1908662;75;21132;-89
2023/01/20 07:51:35;;;;;;;4.85;3.00;;;-1.80;99.90;;;;;;1909956;75;21115;-91
2023/01/20 07:54:30;;;;;;;4.67;2.70;;;-1.80;99.90;;;;;;1914229;74;21065;-88
2023/01/20 07:57:22;;;;;;;5.33;3.37;;;-1.80;99.90;;;;;;1917069;75;21768;-90
2023/01/20 08:00:15;;;;;;;6.35;3.02;;;-1.70;99.90;;;;;;1916877;75;21143;-88
2023/01/20 08:07:05;;;;;;;;;;;-1.60;99.90;;;;;;1917196;75;21145;-90
2023/01/20 08:13:20;;;;;;;3.72;2.22;;;-1.60;99.90;;;;;;1949470;72;22275;-87
2023/01/20 08:16:14;;;;;;;5.37;2.25;;;-1.60;99.90;;;;;;1938888;73;21182;-91
2023/01/20 08:19:53;;;;;;;8.95;3.20;;;-1.50;99.90;;;;;;1917054;75;21129;-88
2023/01/20 08:23:13;;;;;;;5.55;2.95;;;-1.50;99.90;;;;;;1933005;73;21101;-89
2023/01/20 08:26:06;;;;;;;4.22;2.20;;;-1.40;99.90;;;;;;1928254;73;21075;-89
2023/01/20 08:29:02;;;;;;;3.98;2.12;;;-1.40;99.90;;;;;;1917538;73;21109;-89
2023/01/20 08:31:54;;;;;;;4.92;2.47;;;-1.50;99.90;;;;;;1933175;73;21109;-91
2023/01/20 08:34:47;;;;;;;4.17;2.12;;;-1.50;99.90;;;;;;1919611;73;21176;-89
2023/01/20 08:37:40;;;;;;;6.50;2.45;;;-1.50;99.90;;;;;;1920144;73;21283;-91
2023/01/20 08:40:33;;;;;;;5.53;2.60;;;-1.40;99.90;;;;;;1921809;73;21147;-89
2023/01/20 08:43:24;;;;;;;4.05;2.45;;;-1.40;99.90;;;;;;1916575;73;21148;-88
2023/01/20 08:46:19;;;;;;;3.90;2.20;;;-1.40;99.90;;;;;;1952667;73;21115;-89
2023/01/20 08:49:13;;;;;;;3.90;2.40;;;-1.40;99.90;;;;;;1924545;73;21215;-90
2023/01/20 08:54:59;;;;;;;4.35;2.87;;;-1.10;99.90;;;;;;1953533;72;22352;-90
2023/01/20 08:57:53;;;;;;;5.15;2.58;;;-1.10;99.90;;;;;;1916811;73;21137;-88
2023/01/20 09:00:46;;;;;;;3.10;2.05;;;-1.10;99.90;;;;;;1916689;73;21121;-89
2023/01/20 09:03:38;;;;;;;5.30;2.40;;;-1.00;99.90;;;;;;1917078;73;21589;-91
2023/01/20 09:06:31;;;;;;;6.22;2.40;;;-0.90;99.90;;;;;;1924878;73;21175;-89
2023/01/20 09:12:06;;;;;;;2.58;1.85;;;-0.70;99.90;;;;;;1922577;72;22219;-89
2023/01/20 09:17:49;;;;;;;3.33;2.20;;;-0.60;99.90;;;;;;1945458;72;22187;-88
2023/01/20 09:26:42;;;;;;;3.17;1.90;;;-0.50;99.90;;;;;;1983026;71;22237;-91
2023/01/20 09:32:15;;;;;;;4.65;2.30;;;-0.40;99.90;;;;;;1931582;72;22260;-89
2023/01/20 11:43:27;;;;;;;5.22;3.40;;;2.50;99.90;;;;;;1948848;72;22132;-92
2023/01/20 11:46:29;;;;;;;7.87;4.40;;;2.60;99.90;;;;;;1874435;75;21103;-92
2023/01/20 12:10:41;;;;;;;5.28;3.10;;;3.20;99.90;;;;;;1943182;72;22131;-93
2023/01/20 13:38:08;;;;;;;6.37;2.70;;;3.40;99.90;;;;;;2103581;68;22141;-93
2023/01/20 13:41:04;;;;;;;3.67;2.20;;;3.40;99.90;;;;;;2035948;69;21046;-93
2023/01/20 13:43:57;;;;;;;2.60;1.85;;;3.50;99.90;;;;;;2032912;70;21093;-94
2023/01/20 13:46:50;;;;;;;3.27;1.90;;;3.60;99.90;;;;;;2033229;70;21162;-94
2023/01/20 13:50:01;;;;;;;3.80;2.22;;;3.60;99.90;;;;;;2034457;70;21101;-93
2023/01/20 13:53:16;;;;;;;2.92;2.02;;;3.70;99.90;;;;;;2036012;70;21075;-94
2023/01/20 13:56:25;;;;;;;2.83;1.98;;;3.80;99.90;;;;;;2034209;70;21130;-92
2023/01/20 13:59:17;;;;;;;4.60;2.60;;;3.70;99.90;;;;;;2036197;70;21115;-93
2023/01/20 14:02:18;;;;;;;3.20;2.35;;;3.70;99.90;;;;;;2035999;70;21277;-93
2023/01/20 14:05:33;;;;;;;3.47;2.52;;;3.70;99.90;;;;;;2035897;70;21078;-95
2023/01/20 14:08:27;;;;;;;2.92;1.90;;;3.70;99.90;;;;;;2035968;70;21095;-93
2023/01/20 14:11:24;;;;;;;2.83;2.20;;;3.70;99.90;;;;;;2037352;70;21152;-95
2023/01/20 14:14:21;;;;;;;4.12;2.75;;;3.70;99.90;;;;;;2036673;70;21082;-95
2023/01/20 14:17:17;;;;;;;3.70;2.40;;;3.70;99.90;;;;;;2037402;70;21019;-94
2023/01/20 14:20:36;;;;;;;4.20;2.42;;;3.80;99.90;;;;;;2040136;70;21078;-95
2023/01/20 14:23:32;;;;;;;6.92;2.50;;;3.80;99.90;;;;;;2052426;69;21145;-94
2023/01/20 14:26:28;;;;;;;3.98;1.92;;;3.80;99.90;;;;;;2033353;69;21105;-95
2023/01/20 14:29:20;;;;;;;4.12;2.05;;;3.90;99.90;;;;;;2033454;70;21074;-92
2023/01/20 14:32:22;;;;;;;2.60;2.15;;;4.10;99.90;;;;;;2037199;70;21091;-95
2023/01/20 14:35:19;;;;;;;3.08;2.47;;;4.00;99.90;;;;;;2036863;70;21095;-94
2023/01/20 14:38:18;;;;;;;3.52;2.37;;;3.80;99.90;;;;;;2026653;70;21402;-93
2023/01/20 14:41:26;;;;;;;3.80;2.30;;;3.80;99.90;;;;;;2021186;71;21159;-93
2023/01/20 14:44:24;;;;;;;4.40;2.10;;;3.80;99.90;;;;;;2018447;71;21094;-93
2023/01/20 14:47:17;;;;;;;5.10;2.47;;;3.80;99.90;;;;;;2021244;71;21031;-93
2023/01/20 14:50:18;;;;;;;5.00;1.92;;;3.80;99.90;;;;;;2021728;71;21120;-94
2023/01/20 14:53:22;;;;;;;2.75;2.20;;;3.80;99.90;;;;;;2022619;71;21083;-95
2023/01/20 14:56:21;;;;;;;3.47;2.52;;;3.80;99.90;;;;;;2018668;71;21132;-94
2023/01/20 14:59:20;;;;;;;2.58;1.90;;;3.70;99.90;;;;;;2023357;71;21147;-93
2023/01/20 15:02:20;;;;;;;3.33;1.92;;;3.70;99.90;;;;;;2021635;71;21136;-94
2023/01/20 15:05:26;;;;;;;3.90;2.37;;;3.60;99.90;;;;;;2021431;71;21147;-93
2023/01/20 15:08:24;;;;;;;3.60;1.98;;;3.60;99.90;;;;;;2018126;71;21064;-93
2023/01/20 15:11:31;;;;;;;2.67;2.10;;;3.70;99.90;;;;;;2017974;71;21138;-94
2023/01/20 15:14:27;;;;;;;5.55;2.60;;;3.70;99.90;;;;;;2017847;71;21143;-93
2023/01/20 15:17:26;;;;;;;4.67;2.55;;;3.70;99.90;;;;;;2017693;71;21104;-93
2023/01/20 15:20:41;;;;;;;4.37;1.98;;;3.70;99.90;;;;;;2018291;71;21124;-93
2023/01/20 15:23:44;;;;;;;2.55;1.87;;;3.70;99.90;;;;;;2019228;71;21089;-95
2023/01/20 15:26:42;;;;;;;2.40;2.00;;;3.60;99.90;;;;;;2020529;71;21026;-92
2023/01/20 15:29:37;;;;;;;;;;;3.60;99.90;;;;;;2023950;71;21291;-93
2023/01/20 15:32:29;;;;;;;1.95;1.50;;;3.50;99.90;;;;;;2020217;71;20294;-92
2023/01/20 15:35:25;;;;;;;3.08;1.70;;;3.50;99.90;;;;;;2018977;71;21022;-95
2023/01/20 15:38:17;;;;;;;2.37;1.25;;;3.40;99.90;;;;;;2016070;71;21220;-94
2023/01/20 15:41:13;;;;;;;3.60;1.50;;;3.40;99.90;;;;;;2015458;70;21075;-93
2023/01/20 15:44:08;;;;;;;2.42;1.37;;;3.30;99.90;;;;;;2024642;71;21027;-93
2023/01/20 15:47:01;;;;;;;1.82;1.22;;;3.30;99.90;;;;;;2025403;71;21019;-93
2023/01/20 15:49:53;;;;;;;2.10;1.52;;;3.30;99.90;;;;;;2025203;71;21125;-94
2023/01/20 15:52:45;;;;;;;3.80;1.77;;;3.30;99.90;;;;;;2024980;71;21364;-96
2023/01/20 15:55:44;;;;;;;2.12;1.60;;;3.30;99.90;;;;;;2024839;71;21179;-94
2023/01/20 15:58:38;;;;;;;3.83;2.10;;;3.30;99.90;;;;;;2024836;71;21021;-94
2023/01/20 16:01:31;;;;;;;2.02;1.50;;;3.30;99.90;;;;;;2024772;71;21095;-94
2023/01/20 16:04:23;;;;;;;1.98;1.57;;;3.30;99.90;;;;;;2020300;71;21092;-94
2023/01/20 16:07:17;;;;;;;1.87;1.42;;;3.20;99.90;;;;;;2012121;71;21088;-94
2023/01/20 16:10:15;;;;;;;2.60;1.30;;;3.10;99.90;;;;;;2016242;70;21124;-96
2023/01/20 16:13:10;;;;;;;2.83;1.90;;;3.10;99.90;;;;;;2013554;71;21133;-94
2023/01/20 16:16:03;;;;;;;2.92;2.00;;;3.00;99.90;;;;;;2011744;71;21088;-94
2023/01/20 16:19:00;;;;;;;3.00;2.10;;;2.90;99.90;;;;;;2011486;71;21178;-95
2023/01/20 16:21:52;;;;;;;3.15;2.25;;;2.90;99.90;;;;;;2011385;71;21045;-93
2023/01/20 16:24:47;;;;;;;2.08;1.60;;;3.00;99.90;;;;;;2012373;70;21075;-93
2023/01/20 16:27:40;;;;;;;2.52;1.72;;;3.00;99.90;;;;;;2024745;71;21100;-92
2023/01/20 16:30:32;;;;;;;2.98;1.67;;;2.90;99.90;;;;;;2024682;71;21020;-94
2023/01/20 16:33:27;;;;;;;3.25;2.40;;;2.80;99.90;;;;;;2025218;71;21075;-93
2023/01/20 16:36:23;;;;;;;4.55;1.80;;;2.80;99.90;;;;;;2027041;71;21036;-93
2023/01/20 16:39:15;;;;;;;3.17;2.05;;;2.70;99.90;;;;;;2024146;70;21091;-94
2023/01/20 16:42:13;;;;;;;2.77;1.70;;;2.70;99.90;;;;;;2021942;71;21047;-94
2023/01/20 16:45:27;;;;;;;3.72;2.10;;;2.70;99.90;;;;;;2022074;71;21403;-94
2023/01/20 16:48:20;;;;;;;3.47;2.35;;;2.80;99.90;;;;;;2021974;71;21082;-94
2023/01/20 16:51:14;;;;;;;2.80;2.08;;;2.80;99.90;;;;;;2022477;71;21032;-94
2023/01/20 16:54:11;;;;;;;3.12;2.30;;;2.80;99.90;;;;;;2021116;71;21048;-92
2023/01/20 16:57:04;;;;;;;4.05;3.00;;;2.70;99.90;;;;;;2020143;71;21054;-93
2023/01/20 16:59:58;;;;;;;4.30;2.83;;;2.60;99.90;;;;;;2029875;69;21034;-93
2023/01/20 17:02:51;;;;;;;3.90;2.72;;;2.50;99.90;;;;;;2018605;71;21067;-93
2023/01/20 17:05:45;;;;;;;3.08;2.52;;;2.40;99.90;;;;;;2018243;71;21118;-92
2023/01/20 17:08:38;;;;;;;6.15;3.22;;;2.40;99.90;;;;;;2018286;71;21066;-94
2023/01/20 17:11:36;;;;;;;4.80;3.00;;;2.40;99.90;;;;;;2062504;69;21136;-93
2023/01/20 17:14:28;;;;;;;5.78;3.77;;;2.60;99.90;;;;;;2079652;69;21027;-93
2023/01/20 17:17:21;;;;;;;4.40;3.47;;;2.50;99.90;;;;;;2077442;69;21112;-93
2023/01/20 17:20:16;;;;;;;4.08;3.02;;;2.40;99.90;;;;;;2018572;71;21102;-93
2023/01/20 17:23:08;;;;;;;5.22;3.50;;;2.40;99.90;;;;;;2021196;71;21148;-93
2023/01/20 17:26:02;;;;;;;4.72;3.67;;;2.40;99.90;;;;;;2024554;71;21120;-96
2023/01/20 17:28:57;;;;;;;5.92;4.05;;;2.40;99.90;;;;;;2026417;71;21077;-94
2023/01/20 17:31:51;;;;;;;5.08;3.60;;;2.30;99.90;;;;;;2022015;71;21087;-93
2023/01/20 17:34:43;;;;;;;3.85;2.77;;;2.40;99.90;;;;;;2017588;71;21064;-93
2023/01/20 17:37:36;;;;;;;5.22;4.10;;;2.30;99.90;;;;;;2017398;71;21141;-92
2023/01/20 17:40:28;;;;;;;5.22;3.50;;;2.20;99.90;;;;;;2032245;69;21147;-93
2023/01/20 17:43:20;;;;;;;4.62;3.67;;;2.20;99.90;;;;;;2062072;69;21051;-95
2023/01/20 17:46:18;;;;;;;5.67;3.87;;;2.10;99.90;;;;;;2017164;71;21120;-94
2023/01/20 17:49:13;;;;;;;5.03;3.55;;;2.20;99.90;;;;;;2018040;71;21138;-93
2023/01/20 17:52:18;;;;;;;5.00;3.45;;;2.20;99.90;;;;;;2019842;71;21098;-91
2023/01/20 17:55:16;;;;;;;3.83;2.98;;;2.20;99.90;;;;;;2017875;71;21102;-93
2023/01/20 17:58:14;;;;;;;5.28;3.00;;;2.40;99.90;;;;;;2020295;71;21078;-92
2023/01/20 18:01:19;;;;;;;4.53;3.40;;;2.30;99.90;;;;;;1992959;70;21128;-92
2023/01/20 18:04:13;;;;;;;4.55;3.10;;;2.30;99.90;;;;;;2055536;70;21052;-93
2023/01/20 18:07:14;;;;;;;5.08;3.55;;;2.30;99.90;;;;;;1996323;70;21152;-94
2023/01/20 18:26:12;;;;;;;5.10;3.75;;;2.30;99.90;;;;;;1954197;72;22165;-92
2023/01/20 18:29:06;;;;;;;5.05;3.30;;;2.30;99.90;;;;;;1917543;75;21140;-90
2023/01/20 18:31:58;;;;;;;5.28;3.70;;;2.20;99.90;;;;;;1917332;74;21084;-90
2023/01/20 18:34:49;;;;;;;4.25;3.10;;;2.20;99.90;;;;;;1917354;75;21142;-90
2023/01/20 18:37:41;;;;;;;4.65;3.17;;;2.30;99.90;;;;;;1917228;75;21078;-90
2023/01/20 18:40:33;;;;;;;4.30;3.25;;;2.10;99.90;;;;;;1932207;73;21043;-90
2023/01/20 18:43:25;;;;;;;6.25;3.20;;;2.10;99.90;;;;;;1930096;73;21233;-90
2023/01/20 18:46:17;;;;;;;3.70;2.95;;;2.20;99.90;;;;;;1913164;75;21137;-89
2023/01/20 18:49:10;;;;;;;3.77;2.92;;;2.30;99.90;;;;;;1921612;73;21221;-90
2023/01/20 18:52:01;;;;;;;4.05;3.10;;;2.10;99.90;;;;;;1917045;75;21530;-90
2023/01/20 18:54:53;;;;;;;3.25;2.55;;;2.20;99.90;;;;;;1917382;73;21196;-90
2023/01/20 18:57:45;;;;;;;4.00;3.15;;;2.10;99.90;;;;;;1917389;75;21161;-89
2023/01/20 19:00:36;;;;;;;4.42;3.17;;;2.10;99.90;;;;;;1917395;75;21126;-90
2023/01/20 19:03:29;;;;;;;4.17;2.95;;;2.00;99.90;;;;;;1918899;75;21109;-91
2023/01/20 19:06:24;;;;;;;4.58;3.25;;;2.00;99.90;;;;;;1917670;75;21098;-91
2023/01/20 19:09:20;;;;;;;4.83;3.08;;;2.00;99.90;;;;;;1917352;75;21101;-90
2023/01/20 19:12:13;;;;;;;4.85;3.02;;;2.00;99.90;;;;;;1932384;73;21071;-89
2023/01/20 19:15:07;;;;;;;5.37;3.25;;;2.00;99.90;;;;;;1917011;75;21112;-90
2023/01/20 19:17:58;;;;;;;5.53;3.83;;;2.20;99.90;;;;;;1944800;73;21090;-90
2023/01/20 19:23:43;;;;;;;4.28;3.12;;;2.10;99.90;;;;;;1976960;72;22222;-89
2023/01/20 19:26:38;;;;;;;4.67;3.30;;;2.10;99.90;;;;;;1916476;75;21195;-90
2023/01/20 19:29:30;;;;;;;4.55;3.12;;;2.10;99.90;;;;;;1917517;75;21199;-91
2023/01/20 19:32:22;;;;;;;3.60;2.83;;;2.00;99.90;;;;;;1917123;75;21155;-90
2023/01/20 19:35:13;;;;;;;3.87;3.08;;;2.00;99.90;;;;;;1917283;75;21123;-90
2023/01/20 19:38:05;;;;;;;3.10;2.25;;;1.90;99.90;;;;;;1917143;75;21159;-90
2023/01/20 19:40:58;;;;;;;4.50;2.55;;;1.90;99.90;;;;;;1938033;73;21132;-90
2023/01/20 19:46:35;;;;;;;4.37;2.35;;;2.00;99.90;;;;;;1942149;72;22239;-90
2023/01/20 19:49:27;;;;;;;3.55;2.55;;;2.00;99.90;;;;;;1917282;75;21121;-91
2023/01/20 19:52:18;;;;;;;2.72;2.10;;;2.20;99.90;;;;;;1916476;75;21112;-90
2023/01/20 19:55:10;;;;;;;2.55;1.80;;;2.40;99.90;;;;;;1917737;73;21090;-90
2023/01/20 19:58:02;;;;;;;3.52;2.15;;;2.40;99.90;;;;;;1917068;75;21164;-90
2023/01/20 20:00:53;;;;;;;3.58;2.25;;;2.40;99.90;;;;;;1917564;75;21248;-90
2023/01/20 20:03:46;;;;;;;3.90;2.77;;;2.20;99.90;;;;;;1917288;75;21242;-91
2023/01/20 20:06:41;;;;;;;6.97;3.55;;;2.20;99.90;;;;;;1917287;75;21095;-91
2023/01/20 20:09:34;;;;;;;6.47;3.95;;;2.10;99.90;;;;;;1917251;75;21183;-90
2023/01/20 20:12:25;;;;;;;6.22;4.12;;;2.10;99.90;;;;;;1916723;75;21181;-90
2023/01/20 20:15:18;;;;;;;7.37;4.20;;;2.10;99.90;;;;;;1931889;73;21089;-89
2023/01/20 20:18:09;;;;;;;6.70;4.60;;;2.10;99.90;;;;;;1918606;73;21102;-89
2023/01/20 20:21:01;;;;;;;5.37;3.87;;;2.00;99.90;;;;;;1921765;73;21098;-90
2023/01/20 20:23:54;;;;;;;7.92;4.47;;;2.00;99.90;;;;;;1929328;73;21096;-91
2023/01/20 20:26:47;;;;;;;4.72;3.17;;;2.00;99.90;;;;;;1932947;73;21142;-90
2023/01/20 20:29:39;;;;;;;3.42;2.40;;;1.90;99.90;;;;;;1918329;73;21125;-90
2023/01/20 20:32:31;;;;;;;5.20;3.75;;;1.90;99.90;;;;;;1940905;73;21106;-89
2023/01/20 20:35:22;;;;;;;5.45;3.42;;;2.00;99.90;;;;;;1932629;73;21153;-90
2023/01/20 20:38:14;;;;;;;4.12;2.30;;;2.00;99.90;;;;;;1932090;73;21063;-91
2023/01/20 20:41:08;;;;;;;6.10;4.25;;;1.90;99.90;;;;;;1918304;73;21210;-89
2023/01/20 20:44:01;;;;;;;5.42;3.95;;;1.90;99.90;;;;;;1924641;73;21139;-90
2023/01/20 20:46:52;;;;;;;6.70;4.95;;;1.90;99.90;;;;;;1920079;73;21176;-89
2023/01/20 20:49:44;;;;;;;8.03;5.25;;;1.80;99.90;;;;;;1876893;76;21094;-89
2023/01/20 20:52:35;;;;;;;8.48;5.20;;;1.70;99.90;;;;;;1903161;74;21193;-89
2023/01/20 20:55:28;;;;;;;6.55;4.30;;;1.60;99.90;;;;;;1914402;74;21147;-90
2023/01/20 20:58:19;;;;;;;5.62;3.75;;;1.60;99.90;;;;;;1883016;74;21102;-90
2023/01/20 21:01:14;;;;;;;4.67;2.85;;;1.60;99.90;;;;;;1900837;75;21180;-89
2023/01/20 21:04:06;;;;;;;3.60;2.37;;;1.50;99.90;;;;;;1917664;74;21102;-90
2023/01/20 21:06:57;;;;;;;3.83;2.50;;;1.50;99.90;;;;;;1890457;75;21480;-91
2023/01/20 21:09:49;;;;;;;3.77;2.65;;;1.50;99.90;;;;;;1883373;74;21114;-90
2023/01/20 21:12:41;;;;;;;3.42;2.58;;;1.50;99.90;;;;;;1897587;75;21105;-90
2023/01/20 21:15:33;;;;;;;3.77;2.55;;;1.50;99.90;;;;;;1883818;75;21071;-90
2023/01/20 21:18:25;;;;;;;3.15;2.27;;;1.40;99.90;;;;;;1914933;74;21087;-89
2023/01/20 21:21:18;;;;;;;4.17;2.50;;;1.40;99.90;;;;;;1878470;75;21059;-92
2023/01/20 21:26:49;;;;;;;3.83;2.27;;;1.30;99.90;;;;;;1926912;72;22303;-90
2023/01/20 21:32:19;;;;;;;4.20;2.80;;;1.40;99.90;;;;;;1946303;72;22247;-90
2023/01/20 21:37:58;;;;;;;2.85;2.17;;;1.40;99.90;;;;;;1942457;72;22194;-90